sensor_id;sensor_type;location;lat;lon;timestamp;temperature;humidity
40696;DHT22;40425;51.102;17.208;2023-05-29T00:02:25;10.60;99.90
40696;DHT22;40425;51.102;17.208;2023-05-29T00:07:26;10.60;99.90
40696;DHT22;40425;51.102;17.208;2023-05-29T00:12:27;10.50;99.90
40696;DHT22;40425;51.102;17.208;2023-05-29T00:17:27;10.40;99.90
40696;DHT22;40425;51.102;17.208;2023-05-29T00:22:29;10.30;99.90
40696;DHT22;40425;51.102;17.208;2023-05-29T00:27:30;10.30;99.90
40696;DHT22;40425;51.102;17.208;2023-05-29T00:32:31;10.30;99.90
40696;DHT22;40425;51.102;17.208;2023-05-29T00:37:32;10.20;99.90
40696;DHT22;40425;51.102;17.208;2023-05-29T00:42:32;10.20;99.90
40696;DHT22;40425;51.102;17.208;2023-05-29T00:47:33;10.10;99.90
40696;DHT22;40425;51.102;17.208;2023-05-29T00:52:35;10.00;99.90
40696;DHT22;40425;51.102;17.208;2023-05-29T00:57:36;9.90;99.90
40696;DHT22;40425;51.102;17.208;2023-05-29T01:02:42;9.90;99.90
40696;DHT22;40425;51.102;17.208;2023-05-29T01:07:45;9.90;99.90
40696;DHT22;40425;51.102;17.208;2023-05-29T01:12:48;9.80;99.90
40696;DHT22;40425;51.102;17.208;2023-05-29T01:18:11;9.70;99.90
40696;DHT22;40425;51.102;17.208;2023-05-29T01:23:37;9.60;99.90
40696;DHT22;40425;51.102;17.208;2023-05-29T01:28:46;9.50;99.90
40696;DHT22;40425;51.102;17.208;2023-05-29T01:33:55;9.40;99.90
40696;DHT22;40425;51.102;17.208;2023-05-29T01:38:58;9.40;99.90
40696;DHT22;40425;51.102;17.208;2023-05-29T01:44:02;9.40;99.90
40696;DHT22;40425;51.102;17.208;2023-05-29T01:49:04;9.30;99.90
40696;DHT22;40425;51.102;17.208;2023-05-29T01:54:05;9.30;99.90
40696;DHT22;40425;51.102;17.208;2023-05-29T01:59:06;9.20;99.90
40696;DHT22;40425;51.102;17.208;2023-05-29T02:04:08;9.10;99.90
40696;DHT22;40425;51.102;17.208;2023-05-29T02:09:09;9.00;99.90
40696;DHT22;40425;51.102;17.208;2023-05-29T02:14:10;8.90;99.90
40696;DHT22;40425;51.102;17.208;2023-05-29T02:19:10;8.90;99.90
40696;DHT22;40425;51.102;17.208;2023-05-29T02:24:11;8.80;99.90
40696;DHT22;40425;51.102;17.208;2023-05-29T02:29:12;8.70;99.90
40696;DHT22;40425;51.102;17.208;2023-05-29T02:34:13;8.60;99.90
40696;DHT22;40425;51.102;17.208;2023-05-29T02:39:14;8.50;99.90
40696;DHT22;40425;51.102;17.208;2023-05-29T02:44:15;8.50;99.90
40696;DHT22;40425;51.102;17.208;2023-05-29T02:49:16;8.50;99.90
40696;DHT22;40425;51.102;17.208;2023-05-29T02:54:17;8.40;99.90
40696;DHT22;40425;51.102;17.208;2023-05-29T02:59:17;8.50;99.90
40696;DHT22;40425;51.102;17.208;2023-05-29T03:04:18;8.50;99.90
40696;DHT22;40425;51.102;17.208;2023-05-29T03:09:20;8.50;99.90
40696;DHT22;40425;51.102;17.208;2023-05-29T03:14:21;8.60;99.90
40696;DHT22;40425;51.102;17.208;2023-05-29T03:19:22;8.60;99.90
40696;DHT22;40425;51.102;17.208;2023-05-29T03:24:22;8.70;99.90
40696;DHT22;40425;51.102;17.208;2023-05-29T03:29:26;8.80;99.90
40696;DHT22;40425;51.102;17.208;2023-05-29T03:34:27;8.90;99.90
40696;DHT22;40425;51.102;17.208;2023-05-29T03:39:28;8.90;99.90
40696;DHT22;40425;51.102;17.208;2023-05-29T03:44:29;9.10;99.90
40696;DHT22;40425;51.102;17.208;2023-05-29T03:49:30;9.30;99.90
40696;DHT22;40425;51.102;17.208;2023-05-29T03:54:32;9.60;99.90
40696;DHT22;40425;51.102;17.208;2023-05-29T03:59:33;9.90;99.90
40696;DHT22;40425;51.102;17.208;2023-05-29T04:04:34;10.20;99.90
40696;DHT22;40425;51.102;17.208;2023-05-29T04:09:35;10.60;99.90
40696;DHT22;40425;51.102;17.208;2023-05-29T04:14:36;11.00;99.90
40696;DHT22;40425;51.102;17.208;2023-05-29T04:19:37;11.60;99.90
40696;DHT22;40425;51.102;17.208;2023-05-29T04:24:38;12.40;99.90
40696;DHT22;40425;51.102;17.208;2023-05-29T04:29:40;12.90;99.90
40696;DHT22;40425;51.102;17.208;2023-05-29T04:34:42;13.20;99.90
40696;DHT22;40425;51.102;17.208;2023-05-29T04:39:46;13.80;99.90
40696;DHT22;40425;51.102;17.208;2023-05-29T04:44:47;14.10;98.90
40696;DHT22;40425;51.102;17.208;2023-05-29T04:49:48;14.50;98.40
40696;DHT22;40425;51.102;17.208;2023-05-29T04:54:50;14.80;97.20
40696;DHT22;40425;51.102;17.208;2023-05-29T04:59:51;15.00;96.10
40696;DHT22;40425;51.102;17.208;2023-05-29T05:04:52;15.00;94.90
40696;DHT22;40425;51.102;17.208;2023-05-29T05:09:53;14.60;95.40
40696;DHT22;40425;51.102;17.208;2023-05-29T05:14:54;14.30;96.60
40696;DHT22;40425;51.102;17.208;2023-05-29T05:19:55;14.00;97.40
40696;DHT22;40425;51.102;17.208;2023-05-29T05:24:57;14.00;99.10
40696;DHT22;40425;51.102;17.208;2023-05-29T05:30:00;14.10;99.10
40696;DHT22;40425;51.102;17.208;2023-05-29T05:35:01;14.10;98.20
40696;DHT22;40425;51.102;17.208;2023-05-29T05:40:02;14.20;96.50
40696;DHT22;40425;51.102;17.208;2023-05-29T05:45:04;14.30;97.40
40696;DHT22;40425;51.102;17.208;2023-05-29T05:50:06;14.40;97.60
40696;DHT22;40425;51.102;17.208;2023-05-29T05:55:08;14.50;95.90
40696;DHT22;40425;51.102;17.208;2023-05-29T06:00:09;14.70;96.40
40696;DHT22;40425;51.102;17.208;2023-05-29T06:05:13;14.80;96.50
40696;DHT22;40425;51.102;17.208;2023-05-29T06:10:14;15.00;96.90
40696;DHT22;40425;51.102;17.208;2023-05-29T06:15:15;15.10;95.10
40696;DHT22;40425;51.102;17.208;2023-05-29T06:20:16;15.20;94.90
40696;DHT22;40425;51.102;17.208;2023-05-29T06:25:19;15.40;94.50
40696;DHT22;40425;51.102;17.208;2023-05-29T06:30:20;15.50;93.20
40696;DHT22;40425;51.102;17.208;2023-05-29T06:35:21;15.70;92.50
40696;DHT22;40425;51.102;17.208;2023-05-29T06:40:22;15.90;93.00
40696;DHT22;40425;51.102;17.208;2023-05-29T06:45:23;16.10;92.90
40696;DHT22;40425;51.102;17.208;2023-05-29T06:50:23;16.30;92.40
40696;DHT22;40425;51.102;17.208;2023-05-29T06:55:24;16.50;92.20
40696;DHT22;40425;51.102;17.208;2023-05-29T07:00:25;16.60;91.30
40696;DHT22;40425;51.102;17.208;2023-05-29T07:05:27;16.70;90.40
40696;DHT22;40425;51.102;17.208;2023-05-29T07:10:28;16.90;91.30
40696;DHT22;40425;51.102;17.208;2023-05-29T07:15:28;17.00;90.60
40696;DHT22;40425;51.102;17.208;2023-05-29T07:20:30;17.20;90.80
40696;DHT22;40425;51.102;17.208;2023-05-29T07:25:30;17.40;88.10
40696;DHT22;40425;51.102;17.208;2023-05-29T07:30:31;17.60;87.80
40696;DHT22;40425;51.102;17.208;2023-05-29T07:35:32;17.80;85.30
40696;DHT22;40425;51.102;17.208;2023-05-29T07:40:34;18.00;83.80
40696;DHT22;40425;51.102;17.208;2023-05-29T07:45:34;18.10;74.90
40696;DHT22;40425;51.102;17.208;2023-05-29T07:50:35;18.30;71.60
40696;DHT22;40425;51.102;17.208;2023-05-29T07:55:37;18.50;70.10
40696;DHT22;40425;51.102;17.208;2023-05-29T08:00:38;18.70;64.80
40696;DHT22;40425;51.102;17.208;2023-05-29T08:05:39;18.80;64.20
40696;DHT22;40425;51.102;17.208;2023-05-29T08:10:40;19.00;51.40
40696;DHT22;40425;51.102;17.208;2023-05-29T08:15:41;19.40;50.10
40696;DHT22;40425;51.102;17.208;2023-05-29T08:20:41;19.50;47.00
40696;DHT22;40425;51.102;17.208;2023-05-29T08:25:43;19.60;43.60
40696;DHT22;40425;51.102;17.208;2023-05-29T08:30:44;19.60;44.70
40696;DHT22;40425;51.102;17.208;2023-05-29T08:35:45;19.80;41.50
40696;DHT22;40425;51.102;17.208;2023-05-29T08:40:47;20.00;37.00
40696;DHT22;40425;51.102;17.208;2023-05-29T08:45:53;19.90;37.20
40696;DHT22;40425;51.102;17.208;2023-05-29T08:50:55;20.20;38.60
40696;DHT22;40425;51.102;17.208;2023-05-29T08:55:57;20.10;38.40
40696;DHT22;40425;51.102;17.208;2023-05-29T09:00:59;20.20;40.70
40696;DHT22;40425;51.102;17.208;2023-05-29T09:06:00;20.40;36.70
40696;DHT22;40425;51.102;17.208;2023-05-29T09:11:01;20.60;39.30
40696;DHT22;40425;51.102;17.208;2023-05-29T09:16:02;20.70;35.70
40696;DHT22;40425;51.102;17.208;2023-05-29T09:21:07;20.80;35.60
40696;DHT22;40425;51.102;17.208;2023-05-29T09:26:14;20.70;36.60
40696;DHT22;40425;51.102;17.208;2023-05-29T09:31:15;20.90;36.60
40696;DHT22;40425;51.102;17.208;2023-05-29T09:36:22;20.90;34.70
40696;DHT22;40425;51.102;17.208;2023-05-29T09:41:26;20.90;32.40
40696;DHT22;40425;51.102;17.208;2023-05-29T09:46:27;20.90;31.40
40696;DHT22;40425;51.102;17.208;2023-05-29T09:51:28;21.10;32.20
40696;DHT22;40425;51.102;17.208;2023-05-29T09:56:29;21.20;29.80
40696;DHT22;40425;51.102;17.208;2023-05-29T10:01:31;21.20;32.50
40696;DHT22;40425;51.102;17.208;2023-05-29T10:06:32;21.40;30.40
40696;DHT22;40425;51.102;17.208;2023-05-29T10:11:38;21.40;29.70
40696;DHT22;40425;51.102;17.208;2023-05-29T10:16:43;21.30;29.50
40696;DHT22;40425;51.102;17.208;2023-05-29T10:21:44;21.60;30.50
40696;DHT22;40425;51.102;17.208;2023-05-29T10:26:48;21.80;28.20
40696;DHT22;40425;51.102;17.208;2023-05-29T10:37:28;21.40;27.50
40696;DHT22;40425;51.102;17.208;2023-05-29T10:42:46;21.50;28.60
40696;DHT22;40425;51.102;17.208;2023-05-29T10:47:47;21.70;28.60
40696;DHT22;40425;51.102;17.208;2023-05-29T10:52:48;21.60;28.90
40696;DHT22;40425;51.102;17.208;2023-05-29T10:57:49;21.70;29.90
40696;DHT22;40425;51.102;17.208;2023-05-29T11:02:52;22.00;30.00
40696;DHT22;40425;51.102;17.208;2023-05-29T11:07:57;22.10;29.40
40696;DHT22;40425;51.102;17.208;2023-05-29T11:12:58;22.10;29.00
40696;DHT22;40425;51.102;17.208;2023-05-29T11:18:12;22.00;29.50
40696;DHT22;40425;51.102;17.208;2023-05-29T11:23:16;22.20;30.10
40696;DHT22;40425;51.102;17.208;2023-05-29T11:28:21;22.20;31.50
40696;DHT22;40425;51.102;17.208;2023-05-29T11:33:26;22.30;28.40
40696;DHT22;40425;51.102;17.208;2023-05-29T11:38:29;22.20;27.90
40696;DHT22;40425;51.102;17.208;2023-05-29T11:43:31;22.30;28.80
40696;DHT22;40425;51.102;17.208;2023-05-29T11:48:33;22.60;31.70
40696;DHT22;40425;51.102;17.208;2023-05-29T11:53:34;22.70;27.30
40696;DHT22;40425;51.102;17.208;2023-05-29T11:58:36;22.70;27.60
40696;DHT22;40425;51.102;17.208;2023-05-29T12:03:41;22.70;27.10
40696;DHT22;40425;51.102;17.208;2023-05-29T12:08:42;22.60;25.90
40696;DHT22;40425;51.102;17.208;2023-05-29T12:13:43;22.90;28.70
40696;DHT22;40425;51.102;17.208;2023-05-29T12:18:44;23.20;27.00
40696;DHT22;40425;51.102;17.208;2023-05-29T12:23:45;23.50;26.30
40696;DHT22;40425;51.102;17.208;2023-05-29T12:28:46;23.20;24.70
40696;DHT22;40425;51.102;17.208;2023-05-29T12:33:48;23.00;25.00
40696;DHT22;40425;51.102;17.208;2023-05-29T12:38:50;23.20;26.30
40696;DHT22;40425;51.102;17.208;2023-05-29T12:43:53;23.40;26.20
40696;DHT22;40425;51.102;17.208;2023-05-29T12:48:56;23.20;26.00
40696;DHT22;40425;51.102;17.208;2023-05-29T12:53:57;22.90;26.10
40696;DHT22;40425;51.102;17.208;2023-05-29T12:58:59;23.00;26.10
40696;DHT22;40425;51.102;17.208;2023-05-29T13:04:00;23.30;24.90
40696;DHT22;40425;51.102;17.208;2023-05-29T13:09:01;23.40;24.90
40696;DHT22;40425;51.102;17.208;2023-05-29T13:14:02;23.20;25.30
40696;DHT22;40425;51.102;17.208;2023-05-29T13:19:02;23.20;25.10
40696;DHT22;40425;51.102;17.208;2023-05-29T13:24:03;23.30;25.90
40696;DHT22;40425;51.102;17.208;2023-05-29T13:29:05;23.70;27.20
40696;DHT22;40425;51.102;17.208;2023-05-29T13:34:07;24.00;24.30
40696;DHT22;40425;51.102;17.208;2023-05-29T13:39:07;24.10;24.80
40696;DHT22;40425;51.102;17.208;2023-05-29T13:44:08;23.90;24.80
40696;DHT22;40425;51.102;17.208;2023-05-29T13:49:09;23.70;26.40
40696;DHT22;40425;51.102;17.208;2023-05-29T13:54:10;23.50;24.90
40696;DHT22;40425;51.102;17.208;2023-05-29T13:59:11;23.60;24.90
40696;DHT22;40425;51.102;17.208;2023-05-29T14:04:12;23.70;24.00
40696;DHT22;40425;51.102;17.208;2023-05-29T14:09:13;23.70;24.30
40696;DHT22;40425;51.102;17.208;2023-05-29T14:14:14;23.60;23.70
40696;DHT22;40425;51.102;17.208;2023-05-29T14:19:16;23.70;23.80
40696;DHT22;40425;51.102;17.208;2023-05-29T14:24:17;23.60;24.30
40696;DHT22;40425;51.102;17.208;2023-05-29T14:29:18;23.60;23.70
40696;DHT22;40425;51.102;17.208;2023-05-29T14:34:19;23.60;24.00
40696;DHT22;40425;51.102;17.208;2023-05-29T14:39:20;23.60;24.50
40696;DHT22;40425;51.102;17.208;2023-05-29T14:44:20;23.60;23.70
40696;DHT22;40425;51.102;17.208;2023-05-29T14:49:21;23.70;23.90
40696;DHT22;40425;51.102;17.208;2023-05-29T14:54:23;23.70;23.60
40696;DHT22;40425;51.102;17.208;2023-05-29T14:59:24;23.70;23.10
40696;DHT22;40425;51.102;17.208;2023-05-29T15:04:25;23.60;23.10
40696;DHT22;40425;51.102;17.208;2023-05-29T15:09:26;23.50;23.80
40696;DHT22;40425;51.102;17.208;2023-05-29T15:14:27;23.40;24.60
40696;DHT22;40425;51.102;17.208;2023-05-29T15:19:28;23.40;25.10
40696;DHT22;40425;51.102;17.208;2023-05-29T15:24:29;23.50;25.10
40696;DHT22;40425;51.102;17.208;2023-05-29T15:29:34;23.60;24.30
40696;DHT22;40425;51.102;17.208;2023-05-29T15:34:35;23.50;24.10
40696;DHT22;40425;51.102;17.208;2023-05-29T15:50:00;23.20;25.70
40696;DHT22;40425;51.102;17.208;2023-05-29T15:55:01;23.30;25.70
40696;DHT22;40425;51.102;17.208;2023-05-29T16:00:03;23.30;26.00
40696;DHT22;40425;51.102;17.208;2023-05-29T16:05:04;23.10;26.60
40696;DHT22;40425;51.102;17.208;2023-05-29T16:10:06;23.10;26.30
40696;DHT22;40425;51.102;17.208;2023-05-29T16:15:10;23.10;27.20
40696;DHT22;40425;51.102;17.208;2023-05-29T16:20:12;23.00;27.40
40696;DHT22;40425;51.102;17.208;2023-05-29T16:25:16;22.80;27.30
40696;DHT22;40425;51.102;17.208;2023-05-29T16:30:21;22.80;27.80
40696;DHT22;40425;51.102;17.208;2023-05-29T16:35:27;22.50;28.60
40696;DHT22;40425;51.102;17.208;2023-05-29T16:40:28;22.50;28.70
40696;DHT22;40425;51.102;17.208;2023-05-29T16:45:29;22.10;30.00
40696;DHT22;40425;51.102;17.208;2023-05-29T16:50:29;22.10;30.00
40696;DHT22;40425;51.102;17.208;2023-05-29T16:55:31;22.00;29.80
40696;DHT22;40425;51.102;17.208;2023-05-29T17:00:32;22.00;30.30
40696;DHT22;40425;51.102;17.208;2023-05-29T17:05:33;21.90;31.10
40696;DHT22;40425;51.102;17.208;2023-05-29T17:10:35;21.90;32.40
40696;DHT22;40425;51.102;17.208;2023-05-29T17:15:38;21.90;33.30
40696;DHT22;40425;51.102;17.208;2023-05-29T17:20:39;21.80;32.40
40696;DHT22;40425;51.102;17.208;2023-05-29T17:25:43;21.80;32.50
40696;DHT22;40425;51.102;17.208;2023-05-29T17:30:44;21.80;33.50
40696;DHT22;40425;51.102;17.208;2023-05-29T17:35:45;21.80;34.20
40696;DHT22;40425;51.102;17.208;2023-05-29T17:40:47;21.70;34.90
40696;DHT22;40425;51.102;17.208;2023-05-29T17:45:48;21.70;34.60
40696;DHT22;40425;51.102;17.208;2023-05-29T17:50:53;21.60;35.20
40696;DHT22;40425;51.102;17.208;2023-05-29T17:55:53;21.40;34.40
40696;DHT22;40425;51.102;17.208;2023-05-29T18:00:55;21.20;35.50
40696;DHT22;40425;51.102;17.208;2023-05-29T18:06:00;21.20;36.30
40696;DHT22;40425;51.102;17.208;2023-05-29T18:11:04;21.10;36.60
40696;DHT22;40425;51.102;17.208;2023-05-29T18:16:09;21.00;37.40
40696;DHT22;40425;51.102;17.208;2023-05-29T18:21:13;20.80;37.60
40696;DHT22;40425;51.102;17.208;2023-05-29T18:26:17;20.70;38.20
40696;DHT22;40425;51.102;17.208;2023-05-29T18:31:18;20.60;38.80
40696;DHT22;40425;51.102;17.208;2023-05-29T18:36:28;20.40;40.20
40696;DHT22;40425;51.102;17.208;2023-05-29T18:41:30;20.20;41.30
40696;DHT22;40425;51.102;17.208;2023-05-29T18:46:38;20.00;42.10
40696;DHT22;40425;51.102;17.208;2023-05-29T18:51:39;19.80;43.70
40696;DHT22;40425;51.102;17.208;2023-05-29T18:56:40;19.60;44.20
40696;DHT22;40425;51.102;17.208;2023-05-29T19:01:41;19.40;45.20
40696;DHT22;40425;51.102;17.208;2023-05-29T19:06:42;19.10;46.00
40696;DHT22;40425;51.102;17.208;2023-05-29T19:11:43;19.00;46.40
40696;DHT22;40425;51.102;17.208;2023-05-29T19:16:45;18.80;47.70
40696;DHT22;40425;51.102;17.208;2023-05-29T19:22:09;18.60;48.50
40696;DHT22;40425;51.102;17.208;2023-05-29T19:27:14;18.40;49.50
40696;DHT22;40425;51.102;17.208;2023-05-29T19:32:32;18.30;50.10
40696;DHT22;40425;51.102;17.208;2023-05-29T19:37:33;18.20;51.10
40696;DHT22;40425;51.102;17.208;2023-05-29T19:42:34;18.10;51.50
40696;DHT22;40425;51.102;17.208;2023-05-29T19:47:35;18.00;51.60
40696;DHT22;40425;51.102;17.208;2023-05-29T19:52:36;17.90;51.90
40696;DHT22;40425;51.102;17.208;2023-05-29T19:57:37;17.80;52.60
40696;DHT22;40425;51.102;17.208;2023-05-29T20:02:38;17.70;53.90
40696;DHT22;40425;51.102;17.208;2023-05-29T20:07:42;17.70;54.00
40696;DHT22;40425;51.102;17.208;2023-05-29T20:17:46;17.60;55.60
40696;DHT22;40425;51.102;17.208;2023-05-29T20:22:46;17.40;56.70
40696;DHT22;40425;51.102;17.208;2023-05-29T20:27:47;17.30;56.00
40696;DHT22;40425;51.102;17.208;2023-05-29T20:32:48;17.30;55.80
40696;DHT22;40425;51.102;17.208;2023-05-29T20:37:50;17.30;55.90
40696;DHT22;40425;51.102;17.208;2023-05-29T20:42:52;17.20;56.00
40696;DHT22;40425;51.102;17.208;2023-05-29T20:47:55;17.20;56.80
40696;DHT22;40425;51.102;17.208;2023-05-29T20:52:57;17.10;56.50
40696;DHT22;40425;51.102;17.208;2023-05-29T20:57:57;17.00;56.30
40696;DHT22;40425;51.102;17.208;2023-05-29T21:03:00;16.90;56.60
40696;DHT22;40425;51.102;17.208;2023-05-29T21:08:03;16.90;57.20
40696;DHT22;40425;51.102;17.208;2023-05-29T21:13:04;16.90;58.30
40696;DHT22;40425;51.102;17.208;2023-05-29T21:18:05;16.90;59.00
40696;DHT22;40425;51.102;17.208;2023-05-29T21:23:06;16.90;59.60
40696;DHT22;40425;51.102;17.208;2023-05-29T21:28:07;16.80;60.40
40696;DHT22;40425;51.102;17.208;2023-05-29T21:33:11;16.80;60.10
40696;DHT22;40425;51.102;17.208;2023-05-29T21:38:14;16.80;57.50
40696;DHT22;40425;51.102;17.208;2023-05-29T21:43:15;16.80;55.20
40696;DHT22;40425;51.102;17.208;2023-05-29T21:48:16;16.90;55.20
40696;DHT22;40425;51.102;17.208;2023-05-29T21:53:17;16.90;55.20
40696;DHT22;40425;51.102;17.208;2023-05-29T21:58:23;16.90;55.70
40696;DHT22;40425;51.102;17.208;2023-05-29T22:03:23;16.90;56.10
40696;DHT22;40425;51.102;17.208;2023-05-29T22:08:26;16.80;56.90
40696;DHT22;40425;51.102;17.208;2023-05-29T22:13:27;16.70;57.10
40696;DHT22;40425;51.102;17.208;2023-05-29T22:18:28;16.60;58.10
40696;DHT22;40425;51.102;17.208;2023-05-29T22:23:29;16.50;58.30
40696;DHT22;40425;51.102;17.208;2023-05-29T22:28:29;16.40;59.30
40696;DHT22;40425;51.102;17.208;2023-05-29T22:33:30;16.30;59.90
40696;DHT22;40425;51.102;17.208;2023-05-29T22:38:31;16.30;61.10
40696;DHT22;40425;51.102;17.208;2023-05-29T22:43:32;16.20;61.20
40696;DHT22;40425;51.102;17.208;2023-05-29T22:48:33;16.20;61.90
40696;DHT22;40425;51.102;17.208;2023-05-29T22:53:34;16.00;62.70
40696;DHT22;40425;51.102;17.208;2023-05-29T22:58:35;16.00;63.60
40696;DHT22;40425;51.102;17.208;2023-05-29T23:03:36;15.80;64.40
40696;DHT22;40425;51.102;17.208;2023-05-29T23:08:37;15.70;65.20
40696;DHT22;40425;51.102;17.208;2023-05-29T23:13:38;15.60;65.40
40696;DHT22;40425;51.102;17.208;2023-05-29T23:18:39;15.60;66.60
40696;DHT22;40425;51.102;17.208;2023-05-29T23:23:39;15.40;67.30
40696;DHT22;40425;51.102;17.208;2023-05-29T23:28:40;15.30;68.70
40696;DHT22;40425;51.102;17.208;2023-05-29T23:33:41;15.20;69.60
40696;DHT22;40425;51.102;17.208;2023-05-29T23:38:42;15.10;70.20
40696;DHT22;40425;51.102;17.208;2023-05-29T23:43:43;15.00;71.20
40696;DHT22;40425;51.102;17.208;2023-05-29T23:48:43;14.80;72.40
40696;DHT22;40425;51.102;17.208;2023-05-29T23:53:44;14.80;73.00
40696;DHT22;40425;51.102;17.208;2023-05-29T23:58:45;14.70;73.60
